ENTC Airport Information

Runway Information
Runway 18 Length 7848 ft width 148 ft
Elevation 13 ft Threshold 1286 ft Heading 193
Runway 36 Length 7848 ft Width 148 ft
Elevation 25 ft Threshold ft Heading 13
Airport Frequencies
Type APP Name APP Frequency 123.75 MHZ
Type ATIS Name ATIS Frequency 126.125 MHZ
Type TWR Name TWR Frequency 118.3 MHZ
Airport Navaids
Type NDB Name Kobbe Frequency 283 KHZ
Type NDB Name Kvalsund Frequency 362 KHZ
Type NDB Name Lanes Frequency 268 KHZ
Type VOR-DME Name Tromso Frequency 113800 KHZ
Airport Weather Information & NOTAM
ADDS - METARS form results

(0638 UTC 31 January 2023)
Data provider http://aviationweather.gov/metar/data/
 
METAR text: ENTC 310620Z 19007KT 9999 BKN007 M04/M05 Q0986 RESN TEMPO 2000 SHSN VV010 RMK WIND 2600FT 33025KT
Conditions at: ENTC (TROMSO/LANGNES , NO) observed 0620 UTC 31 January 2023
Temperature: -4.0°C (25°F)
Dewpoint: -5.0°C (23°F) [RH = 93%]
Pressure (altimeter): 29.11 inches Hg (986.0 mb)
Winds: from the S (190 degrees) at 8 MPH (7 knots; 3.6 m/s)
Visibility: 6 or more miles (10+ km)
Ceiling: 700 feet AGL
Clouds: broken clouds at 700 feet AGL
Weather: no significant weather observed at this time

METAR text: ENTC 310550Z 19005KT 9999 VCSH SCT007 BKN041 BKN130 M04/M05 Q0986 RMK WIND 2600FT 34022KT
Conditions at: ENTC (TROMSO/LANGNES , NO) observed 0550 UTC 31 January 2023
Temperature: -4.0°C (25°F)
Dewpoint: -5.0°C (23°F) [RH = 93%]
Pressure (altimeter): 29.11 inches Hg (986.0 mb)
Winds: from the S (190 degrees) at 6 MPH (5 knots; 2.6 m/s)
Visibility: 6 or more miles (10+ km)
Ceiling: 4100 feet AGL
Clouds: scattered clouds at 700 feet AGL
broken clouds at 4100 feet AGL
broken clouds at 13000 feet AGL
Weather: VCSH  (showers in vicinity)

Forecast for: ENTC (TROMSO/LANGNES , NO)
Text: TAF ENTC 3106/0106 18012KT 9999 SCT008 BKN030
Forecast period: 0600 UTC 31 January 2023 to 0600 UTC 01 February 2023
Forecast type: FROM: standard forecast or significant change
Winds: from the S (180 degrees) at 14 MPH (12 knots; 6.2 m/s)
Visibility: 6 or more miles (10+ km)
Ceiling: 3000 feet AGL
Clouds: scattered clouds at 800 feet AGL
broken clouds at 3000 feet AGL
Weather: no significant weather forecast for this period
Text: TEMPO 3106/0106 1000 SHSN BKN008 SCT018CB
Forecast period: 0600 UTC 31 January 2023 to 0600 UTC 01 February 2023
Forecast type: TEMPORARY: The following changes expected for less than half the time period
Visibility: 0.62 miles (1.00 km)
Ceiling: 800 feet AGL
Clouds: broken clouds at 800 feet AGL
scattered clouds at 1800 feet AGL
Weather: SHSN  (snow showers)